Terminal Aerodrome Forecast
Issued by NWS Charleston, SC

Home | Current Version | Previous Version | Text Only | Print | Product List | Glossary On
Versions: 1 2 3 4 5 6 7 8 9 10 11 12 13 14 15 16 17 18 19 20 21
000
FTUS42 KCHS 201134
TAFCHS
TAF
KCHS 201134Z 2012/2112 VRB03KT 6SM BR SCT002
     FM201300 VRB05KT P6SM SCT030
     FM201700 18007KT P6SM SCT045
     FM210100 21004KT P6SM FEW030 SCT200=

USA.gov is the U.S. government's official web portal to all federal, state and local government web resources and services.